Seacod — DDPW — position and weather

sailwx.info

Track history (hours):
 
Tides and Currents Weather Stations Pressure Air Temp Water Temp Dewpoint Dewpoint Depression Visibility Wind Speed Wind Dir Waves Ship Positions

Seacod

Last reported at 2016-May-04 09:33 UTC. Time now 2016-May-04 09:52 UTC.
Position N 55°31' E 012°41'.

Length 188 m; draft 6.5 m.

Type: Ship. MMSI: 218019000.

Date/timePositionNaut miles runAvg speedWind from/ knotsBaromVisibWave heightAir tempDewpointWater temp
2016-May-04 09:33N 55°31' E 012°41'1111.2
2016-May-04 08:34N 55°42' E 012°41'1313.1
2016-May-04 07:34N 55°55' E 012°39'1212.5
2016-May-04 06:34N 56°07' E 012°31'9 9.1
2016-May-04 05:33N 56°12' E 012°18'18 9.1
2016-May-04 03:33N 56°27' E 011°60'10 9.9
2016-May-04 02:33N 56°37' E 011°56'10 9.9
2016-May-04 01:34N 56°46' E 011°51'1111.1
2016-May-04 00:33N 56°57' E 011°45'1111.4
2016-May-03 23:33N 57°08' E 011°37'1110.6
2016-May-03 22:33N 57°18' E 011°31'1010.3
2016-May-03 21:34N 57°27' E 011°25'1010.3
2016-May-03 20:33N 57°34' E 011°11'1010.2
2016-May-03 19:33N 57°41' E 010°57'9 9.5
2016-May-03 18:33N 57°48' E 010°45'8410.4
2016-May-03 10:31N 57°17' E 008°20'1111.1
2016-May-03 09:32N 57°08' E 008°09'1111.1
2016-May-03 08:32N 56°59' E 007°57'1111.2
2016-May-03 07:32N 56°50' E 007°46'17511.0
2016-May-02 15:31N 54°17' E 005°13'1010.9
2016-May-02 14:34N 54°07' E 005°09'1111.1
2016-May-02 13:33N 53°56' E 005°03'1111.0
2016-May-02 12:32N 53°46' E 004°57'1111.3
2016-May-02 11:33N 53°35' E 004°50'1211.6
2016-May-02 10:33N 53°25' E 004°42'1412.3
2016-May-02 09:27N 53°13' E 004°32'1112.1
2016-May-02 08:33N 53°03' E 004°24'1211.5
2016-May-02 07:31N 52°52' E 004°15'1111.1
2016-May-02 06:33N 52°44' E 004°04'1211.1
2016-May-02 05:31N 52°35' E 003°52'1111.0
2016-May-02 04:33N 52°27' E 003°41'1110.7
2016-May-02 03:33N 52°17' E 003°32'1110.9
2016-May-02 02:33N 52°07' E 003°26'1111.4
2016-May-02 01:33N 51°56' E 003°22'1211.8
2016-May-02 00:33N 51°45' E 003°16'1212.3
2016-May-01 23:33N 51°34' E 003°25'1111.0
2016-May-01 22:33N 51°26' E 003°37'1111.1
2016-May-01 21:33N 51°21' E 003°53'6 6.2
2016-May-01 20:33N 51°23' E 004°02'8 8.2
2016-May-01 19:33N 51°21' E 004°15'2 1.6
2016-May-01 18:33N 51°21' E 004°18'0 0.1
2016-May-01 15:28N 51°20' E 004°18'0 0.0
2016-May-01 14:22N 51°20' E 004°18'0 0.0
2016-May-01 13:13N 51°20' E 004°18'0 0.0
2016-May-01 12:31N 51°20' E 004°18'0 0.0
2016-May-01 11:22N 51°20' E 004°18'0 0.0
2016-May-01 10:31N 51°20' E 004°18'0 0.0
2016-May-01 09:19N 51°20' E 004°18'0 0.0
2016-May-01 08:31N 51°20' E 004°18'0 0.0
2016-May-01 06:22N 51°20' E 004°18'0 0.0
2016-May-01 02:31N 51°20' E 004°18'0 0.0
2016-Apr-30 23:28N 51°20' E 004°18'0 0.0
2016-Apr-30 22:31N 51°20' E 004°18'0 0.0
2016-Apr-30 21:07N 51°20' E 004°18'0 0.0
2016-Apr-30 19:19N 51°20' E 004°18'0 0.0
2016-Apr-30 18:31N 51°20' E 004°18'0 0.0
2016-Apr-30 14:31N 51°20' E 004°18'0 0.0
2016-Apr-30 13:13N 51°20' E 004°18'0 0.0
2016-Apr-30 12:25N 51°20' E 004°18'0 0.0
2016-Apr-30 11:10N 51°20' E 004°18'0 0.0
2016-Apr-30 10:13N 51°20' E 004°18'0 0.0
2016-Apr-30 07:16N 51°20' E 004°18'0 0.0
2016-Apr-30 06:19N 51°20' E 004°18'0 0.0
2016-Apr-30 04:28N 51°20' E 004°18'0 0.3
2016-Apr-30 03:33N 51°20' E 004°18'1 0.5
2016-Apr-30 02:33N 51°21' E 004°17'2 2.2
2016-Apr-30 01:33N 51°21' E 004°14'8 7.7
2016-Apr-30 00:32N 51°24' E 004°02'8 8.1
2016-Apr-29 23:33N 51°21' E 003°50'1010.1
2016-Apr-29 22:33N 51°26' E 003°37'1110.8
2016-Apr-29 21:32N 51°24' E 003°19'1212.3
2016-Apr-29 20:33N 51°26' E 002°60'1010.0
2016-Apr-29 19:33N 51°34' E 003°09'10 9.7
2016-Apr-29 18:33N 51°43' E 003°15'6 5.7
2016-Apr-29 17:33N 51°45' E 003°07'43911.4
2016-Apr-28 03:04N 57°49' E 010°13'714.3
2016-Apr-28 02:33N 57°49' E 010°27'1313.5
2016-Apr-28 01:33N 57°47' E 010°52'1413.7
2016-Apr-28 00:33N 57°37' E 011°10'1313.4
2016-Apr-27 23:33N 57°27' E 011°27'1414.0
2016-Apr-27 22:33N 57°14' E 011°35'1413.6
2016-Apr-27 21:33N 57°01' E 011°44'1313.4
2016-Apr-27 20:33N 56°49' E 011°54'1312.9
2016-Apr-27 19:33N 56°37' E 011°45'7812.2
2016-Apr-27 13:08N 55°23' E 011°02'814.4
2016-Apr-27 12:34N 55°15' E 011°06'1313.5
2016-Apr-27 11:34N 55°02' E 010°60'1414.4
2016-Apr-27 10:34N 54°48' E 010°50'1111.2
2016-Apr-27 09:33N 54°38' E 010°56'1312.5
2016-Apr-27 08:34N 54°35' E 011°17'1413.8
2016-Apr-27 07:34N 54°29' E 011°38'1313.4
2016-Apr-27 06:33N 54°26' E 012°01'1110.9
2016-Apr-27 05:33N 54°33' E 012°15'1211.9
2016-Apr-27 04:33N 54°41' E 012°30'5212.9
2016-Apr-27 00:33N 55°02' E 013°52'1212.1
2016-Apr-26 23:33N 55°08' E 014°10'1312.7
2016-Apr-26 22:33N 55°18' E 014°23'1313.4
2016-Apr-26 21:33N 55°28' E 014°40'1413.7
2016-Apr-26 20:33N 55°34' E 015°02'  
Track history (hours):
 
Tides and Currents Weather Stations Pressure Air Temp Water Temp Dewpoint Dewpoint Depression Visibility Wind Speed Wind Dir Waves Ship Positions

Seacod

Last reported at 2016-May-04 09:33 UTC. Time now 2016-May-04 09:52 UTC.
Position N 55°31' E 012°41'.

Length 188 m; draft 6.5 m.

Type: Ship. MMSI: 218019000.

Date/timePositionNaut miles runAvg speedWind from/ knotsBaromVisibWave heightAir tempDewpointWater temp
2016-May-04 09:33N 55°31' E 012°41'1111.2
2016-May-04 08:34N 55°42' E 012°41'1313.1
2016-May-04 07:34N 55°55' E 012°39'1212.5
2016-May-04 06:34N 56°07' E 012°31'9 9.1
2016-May-04 05:33N 56°12' E 012°18'18 9.1
2016-May-04 03:33N 56°27' E 011°60'10 9.9
2016-May-04 02:33N 56°37' E 011°56'10 9.9
2016-May-04 01:34N 56°46' E 011°51'1111.1
2016-May-04 00:33N 56°57' E 011°45'1111.4
2016-May-03 23:33N 57°08' E 011°37'1110.6
2016-May-03 22:33N 57°18' E 011°31'1010.3
2016-May-03 21:34N 57°27' E 011°25'1010.3
2016-May-03 20:33N 57°34' E 011°11'1010.2
2016-May-03 19:33N 57°41' E 010°57'9 9.5
2016-May-03 18:33N 57°48' E 010°45'8410.4
2016-May-03 10:31N 57°17' E 008°20'1111.1
2016-May-03 09:32N 57°08' E 008°09'1111.1
2016-May-03 08:32N 56°59' E 007°57'1111.2
2016-May-03 07:32N 56°50' E 007°46'17511.0
2016-May-02 15:31N 54°17' E 005°13'1010.9
2016-May-02 14:34N 54°07' E 005°09'1111.1
2016-May-02 13:33N 53°56' E 005°03'1111.0
2016-May-02 12:32N 53°46' E 004°57'1111.3
2016-May-02 11:33N 53°35' E 004°50'1211.6
2016-May-02 10:33N 53°25' E 004°42'1412.3
2016-May-02 09:27N 53°13' E 004°32'1112.1
2016-May-02 08:33N 53°03' E 004°24'1211.5
2016-May-02 07:31N 52°52' E 004°15'1111.1
2016-May-02 06:33N 52°44' E 004°04'1211.1
2016-May-02 05:31N 52°35' E 003°52'1111.0
2016-May-02 04:33N 52°27' E 003°41'1110.7
2016-May-02 03:33N 52°17' E 003°32'1110.9
2016-May-02 02:33N 52°07' E 003°26'1111.4
2016-May-02 01:33N 51°56' E 003°22'1211.8
2016-May-02 00:33N 51°45' E 003°16'1212.3
2016-May-01 23:33N 51°34' E 003°25'1111.0
2016-May-01 22:33N 51°26' E 003°37'1111.1
2016-May-01 21:33N 51°21' E 003°53'6 6.2
2016-May-01 20:33N 51°23' E 004°02'8 8.2
2016-May-01 19:33N 51°21' E 004°15'2 1.6
2016-May-01 18:33N 51°21' E 004°18'0 0.1
2016-May-01 15:28N 51°20' E 004°18'0 0.0
2016-May-01 14:22N 51°20' E 004°18'0 0.0
2016-May-01 13:13N 51°20' E 004°18'0 0.0
2016-May-01 12:31N 51°20' E 004°18'0 0.0
2016-May-01 11:22N 51°20' E 004°18'0 0.0
2016-May-01 10:31N 51°20' E 004°18'0 0.0
2016-May-01 09:19N 51°20' E 004°18'0 0.0
2016-May-01 08:31N 51°20' E 004°18'0 0.0
2016-May-01 06:22N 51°20' E 004°18'0 0.0
2016-May-01 02:31N 51°20' E 004°18'0 0.0
2016-Apr-30 23:28N 51°20' E 004°18'0 0.0
2016-Apr-30 22:31N 51°20' E 004°18'0 0.0
2016-Apr-30 21:07N 51°20' E 004°18'0 0.0
2016-Apr-30 19:19N 51°20' E 004°18'0 0.0
2016-Apr-30 18:31N 51°20' E 004°18'0 0.0
2016-Apr-30 14:31N 51°20' E 004°18'0 0.0
2016-Apr-30 13:13N 51°20' E 004°18'0 0.0
2016-Apr-30 12:25N 51°20' E 004°18'0 0.0
2016-Apr-30 11:10N 51°20' E 004°18'0 0.0
2016-Apr-30 10:13N 51°20' E 004°18'0 0.0
2016-Apr-30 07:16N 51°20' E 004°18'0 0.0
2016-Apr-30 06:19N 51°20' E 004°18'0 0.0
2016-Apr-30 04:28N 51°20' E 004°18'0 0.3
2016-Apr-30 03:33N 51°20' E 004°18'1 0.5
2016-Apr-30 02:33N 51°21' E 004°17'2 2.2
2016-Apr-30 01:33N 51°21' E 004°14'8 7.7
2016-Apr-30 00:32N 51°24' E 004°02'8 8.1
2016-Apr-29 23:33N 51°21' E 003°50'1010.1
2016-Apr-29 22:33N 51°26' E 003°37'1110.8
2016-Apr-29 21:32N 51°24' E 003°19'1212.3
2016-Apr-29 20:33N 51°26' E 002°60'1010.0
2016-Apr-29 19:33N 51°34' E 003°09'10 9.7
2016-Apr-29 18:33N 51°43' E 003°15'6 5.7
2016-Apr-29 17:33N 51°45' E 003°07'43911.4
2016-Apr-28 03:04N 57°49' E 010°13'714.3
2016-Apr-28 02:33N 57°49' E 010°27'1313.5
2016-Apr-28 01:33N 57°47' E 010°52'1413.7
2016-Apr-28 00:33N 57°37' E 011°10'1313.4
2016-Apr-27 23:33N 57°27' E 011°27'1414.0
2016-Apr-27 22:33N 57°14' E 011°35'1413.6
2016-Apr-27 21:33N 57°01' E 011°44'1313.4
2016-Apr-27 20:33N 56°49' E 011°54'1312.9
2016-Apr-27 19:33N 56°37' E 011°45'7812.2
2016-Apr-27 13:08N 55°23' E 011°02'814.4
2016-Apr-27 12:34N 55°15' E 011°06'1313.5
2016-Apr-27 11:34N 55°02' E 010°60'1414.4
2016-Apr-27 10:34N 54°48' E 010°50'1111.2
2016-Apr-27 09:33N 54°38' E 010°56'1312.5
2016-Apr-27 08:34N 54°35' E 011°17'1413.8
2016-Apr-27 07:34N 54°29' E 011°38'1313.4
2016-Apr-27 06:33N 54°26' E 012°01'1110.9
2016-Apr-27 05:33N 54°33' E 012°15'1211.9
2016-Apr-27 04:33N 54°41' E 012°30'5212.9
2016-Apr-27 00:33N 55°02' E 013°52'1212.1
2016-Apr-26 23:33N 55°08' E 014°10'1312.7
2016-Apr-26 22:33N 55°18' E 014°23'1313.4
2016-Apr-26 21:33N 55°28' E 014°40'1413.7
2016-Apr-26 20:33N 55°34' E 015°02'  

Dump ship's entire track history